Time;durP1;ratioP1;P1;durP2;ratioP2;P2;SDS_P1;SDS_P2;PMS_P1;PMS_P2;Temp;Humidity;BMP_temperature;BMP_pressure;BME280_temperature;BME280_humidity;BME280_pressure;Samples;Min_cycle;Max_cycle;Signal;HPM_P1;HPM_P2
2022/12/26 00:02:22;;;;;;;2.20;1.33;;;12.50;1.00;;;;;;4886741;29;20458;-79
2022/12/26 00:04:51;;;;;;;0.50;0.10;;;12.50;1.00;;;;;;4883550;29;20545;-78
2022/12/26 00:07:20;;;;;;;0.60;0.30;;;12.50;1.00;;;;;;4883437;29;20550;-79
2022/12/26 00:09:48;;;;;;;1.30;0.57;;;12.50;1.00;;;;;;4884507;29;20956;-79
2022/12/26 00:12:16;;;;;;;2.70;0.93;;;12.50;1.00;;;;;;4883882;29;20443;-79
2022/12/26 00:14:44;;;;;;;0.90;0.43;;;12.50;1.00;;;;;;4884214;29;20808;-79
2022/12/26 00:17:12;;;;;;;0.80;0.73;;;12.50;1.00;;;;;;4892769;29;20463;-79
2022/12/26 00:19:40;;;;;;;0.50;0.10;;;12.50;1.00;;;;;;4890670;29;20454;-79
2022/12/26 00:22:09;;;;;;;0.50;0.10;;;12.50;1.00;;;;;;4888593;29;20459;-79
2022/12/26 00:24:37;;;;;;;0.60;0.30;;;12.60;1.00;;;;;;4887141;29;20525;-79
2022/12/26 00:27:05;;;;;;;0.50;0.10;;;12.50;1.00;;;;;;4902202;29;20482;-79
2022/12/26 00:29:33;;;;;;;0.80;0.37;;;12.60;1.00;;;;;;4904950;29;20458;-79
2022/12/26 00:32:02;;;;;;;0.50;0.10;;;12.60;1.00;;;;;;4905760;29;20536;-79
2022/12/26 00:34:31;;;;;;;1.47;1.37;;;;;;;;;;4905069;29;20450;-79
2022/12/26 00:36:59;;;;;;;0.87;0.50;;;12.60;1.00;;;;;;4902761;29;20769;-79
2022/12/26 00:39:28;;;;;;;0.50;0.10;;;12.60;1.00;;;;;;4903575;29;21011;-78
2022/12/26 00:41:56;;;;;;;0.50;0.20;;;12.60;1.00;;;;;;4903924;29;20497;-79
2022/12/26 00:44:24;;;;;;;1.10;0.60;;;12.60;1.00;;;;;;4902862;29;20458;-79
2022/12/26 00:46:52;;;;;;;0.50;0.10;;;12.60;1.00;;;;;;4903430;29;20485;-79
2022/12/26 00:49:20;;;;;;;0.60;0.20;;;12.60;1.00;;;;;;4905231;29;20940;-79
2022/12/26 00:51:47;;;;;;;0.50;0.20;;;12.60;1.00;;;;;;4912567;29;20448;-79
2022/12/26 00:54:15;;;;;;;8.33;1.57;;;12.60;1.00;;;;;;4921955;29;20441;-79
2022/12/26 00:56:45;;;;;;;1.13;0.77;;;12.60;1.00;;;;;;4920991;29;20537;-80
2022/12/26 00:59:14;;;;;;;0.63;0.40;;;;;;;;;;4913912;29;20961;-79
2022/12/26 05:09:39;;;;;;;0.83;0.70;;;12.70;1.00;;;;;;4878890;29;20461;-73
2022/12/26 05:12:09;;;;;;;0.50;0.10;;;12.60;1.00;;;;;;4879183;29;20471;-73
2022/12/26 05:14:37;;;;;;;10.70;3.30;;;12.60;1.00;;;;;;4880063;29;20507;-74
2022/12/26 05:31:03;;;;;;;0.60;0.30;;;12.60;1.00;;;;;;4903032;29;20470;-74
2022/12/26 05:36:19;;;;;;;1.03;0.37;;;12.60;1.00;;;;;;4904729;29;20449;-74
2022/12/26 05:38:48;;;;;;;1.63;0.80;;;12.70;1.00;;;;;;4903894;29;20544;-74
2022/12/26 05:41:16;;;;;;;0.60;0.30;;;12.70;1.00;;;;;;4904497;29;20979;-75
2022/12/26 05:43:44;;;;;;;0.60;0.30;;;12.70;1.00;;;;;;4904059;29;20483;-74
2022/12/26 05:46:14;;;;;;;0.60;0.20;;;12.70;1.00;;;;;;4905910;29;20449;-74
2022/12/26 05:48:44;;;;;;;0.60;0.10;;;12.80;1.00;;;;;;4903722;29;20492;-74
2022/12/26 05:51:12;;;;;;;0.83;0.30;;;12.80;1.00;;;;;;4903910;29;20994;-74
2022/12/26 05:53:40;;;;;;;1.23;0.50;;;12.80;1.00;;;;;;4903877;29;20943;-75
2022/12/26 05:56:11;;;;;;;0.60;0.20;;;12.80;1.00;;;;;;4904693;29;20465;-74
2022/12/26 05:58:39;;;;;;;1.00;0.43;;;12.80;1.00;;;;;;4903911;29;20445;-73
2022/12/26 06:01:09;;;;;;;0.50;0.10;;;12.90;1.00;;;;;;4903949;29;20501;-74
2022/12/26 06:03:38;;;;;;;9.10;1.83;;;12.90;1.00;;;;;;4904158;29;20464;-74
2022/12/26 06:06:07;;;;;;;0.90;0.70;;;12.90;1.00;;;;;;4903420;29;20450;-74
2022/12/26 06:08:35;;;;;;;0.50;0.10;;;12.90;1.00;;;;;;4903278;29;20572;-74
2022/12/26 06:11:05;;;;;;;0.60;0.40;;;12.90;1.00;;;;;;4903267;29;20556;-73
2022/12/26 06:13:33;;;;;;;2.30;0.40;;;13.00;1.00;;;;;;4903251;29;20527;-74
2022/12/26 06:16:04;;;;;;;0.60;0.10;;;13.00;1.00;;;;;;4903580;29;20815;-74
2022/12/26 06:18:32;;;;;;;0.70;0.20;;;13.00;1.00;;;;;;4903416;29;20455;-74
2022/12/26 06:21:04;;;;;;;0.60;0.10;;;13.00;1.00;;;;;;4903586;29;20469;-74
2022/12/26 06:23:33;;;;;;;0.60;0.30;;;13.00;1.00;;;;;;4903743;29;20445;-73
2022/12/26 06:26:01;;;;;;;0.50;0.10;;;13.00;1.00;;;;;;4903348;29;20472;-74
2022/12/26 06:28:29;;;;;;;0.60;0.20;;;13.10;1.00;;;;;;4903683;29;20492;-73
2022/12/26 06:31:02;;;;;;;0.60;0.40;;;;;;;;;;4903740;29;20470;-74
2022/12/26 06:33:30;;;;;;;0.50;0.10;;;13.10;1.00;;;;;;4903479;29;20453;-74
2022/12/26 06:36:03;;;;;;;1.33;0.80;;;13.00;1.00;;;;;;4903903;29;20450;-75
2022/12/26 06:38:33;;;;;;;0.60;0.10;;;13.10;1.00;;;;;;4903795;29;20442;-75
2022/12/26 06:41:01;;;;;;;0.60;0.30;;;13.10;1.00;;;;;;4903522;29;20465;-74
2022/12/26 06:43:29;;;;;;;0.60;0.10;;;13.10;1.00;;;;;;4900031;29;20517;-74
2022/12/26 06:45:57;;;;;;;4.97;1.43;;;13.10;1.00;;;;;;4900831;29;20464;-73
2022/12/26 06:48:26;;;;;;;0.70;0.23;;;13.10;1.00;;;;;;4900272;29;20571;-73
2022/12/26 06:50:54;;;;;;;0.60;0.10;;;13.00;1.00;;;;;;4900221;29;20477;-74
2022/12/26 06:53:22;;;;;;;0.50;0.10;;;13.10;1.00;;;;;;4899953;29;20446;-74
2022/12/26 06:55:52;;;;;;;0.60;0.10;;;13.10;1.00;;;;;;4899794;29;20446;-74
2022/12/26 06:58:20;;;;;;;0.50;0.10;;;13.10;1.00;;;;;;4899397;29;20445;-74
2022/12/26 07:00:48;;;;;;;0.60;0.20;;;13.10;1.00;;;;;;4899809;29;20477;-74
2022/12/26 07:03:15;;;;;;;0.60;0.37;;;13.20;1.00;;;;;;4899957;29;20449;-74
2022/12/26 07:05:43;;;;;;;0.60;0.20;;;13.10;1.00;;;;;;4899974;29;20446;-74
2022/12/26 07:08:11;;;;;;;0.60;0.10;;;13.10;1.00;;;;;;4899755;29;20485;-74
2022/12/26 07:10:39;;;;;;;0.57;0.10;;;13.10;1.00;;;;;;4900124;29;20475;-73
2022/12/26 07:13:08;;;;;;;0.60;0.20;;;13.10;1.00;;;;;;4906196;29;20458;-73
2022/12/26 07:15:36;;;;;;;0.60;0.10;;;13.10;1.00;;;;;;4901743;29;20866;-74
2022/12/26 07:18:03;;;;;;;0.57;0.10;;;13.10;1.00;;;;;;4900249;29;20943;-74
2022/12/26 07:20:31;;;;;;;0.50;0.10;;;13.10;1.00;;;;;;4899722;29;20986;-73
2022/12/26 07:22:59;;;;;;;2.13;1.03;;;13.10;1.00;;;;;;4899739;29;20454;-73
2022/12/26 07:25:27;;;;;;;3.90;3.57;;;13.10;1.00;;;;;;4899567;29;20450;-74
2022/12/26 07:27:54;;;;;;;0.67;0.37;;;13.00;1.00;;;;;;4898994;29;20482;-73
2022/12/26 07:30:24;;;;;;;0.60;0.20;;;12.90;1.00;;;;;;4899406;29;20542;-73
2022/12/26 07:32:51;;;;;;;0.60;0.10;;;12.90;1.00;;;;;;4899156;29;20458;-73
2022/12/26 07:35:19;;;;;;;0.60;0.10;;;12.90;1.00;;;;;;4899285;29;20454;-74
2022/12/26 07:37:47;;;;;;;0.60;0.13;;;13.00;1.00;;;;;;4899098;29;20533;-74
2022/12/26 07:40:15;;;;;;;2.77;0.77;;;12.90;1.00;;;;;;4899016;29;20454;-74
2022/12/26 07:42:43;;;;;;;0.93;0.80;;;12.90;1.00;;;;;;4898903;29;20445;-74
2022/12/26 07:45:10;;;;;;;0.50;0.10;;;12.90;1.00;;;;;;4899092;29;20457;-74
2022/12/26 07:47:40;;;;;;;1.33;0.50;;;12.90;1.00;;;;;;4898810;29;20958;-74
2022/12/26 07:50:08;;;;;;;0.50;0.20;;;12.90;1.00;;;;;;4900277;29;20473;-73
2022/12/26 07:52:36;;;;;;;0.57;0.10;;;12.80;1.00;;;;;;4898898;29;20474;-73
2022/12/26 07:55:04;;;;;;;1.03;0.77;;;12.70;1.00;;;;;;4898025;29;20453;-72
2022/12/26 07:57:32;;;;;;;0.50;0.10;;;12.60;1.00;;;;;;4898521;29;20469;-73
2022/12/26 08:00:17;;;;;;;11.80;10.70;;;12.60;1.00;;;;;;4899058;29;20468;-73
2022/12/26 08:02:48;;;;;;;0.90;0.37;;;12.60;1.00;;;;;;4898268;29;20864;-74
2022/12/26 08:05:19;;;;;;;0.50;0.10;;;12.60;1.00;;;;;;4898624;29;20456;-73
2022/12/26 08:07:47;;;;;;;2.00;0.97;;;12.50;1.00;;;;;;4898492;29;20449;-73
2022/12/26 08:10:16;;;;;;;0.50;0.10;;;12.50;1.00;;;;;;4898548;29;20462;-73
2022/12/26 08:12:44;;;;;;;0.83;0.50;;;12.50;1.00;;;;;;4898766;29;20453;-75
2022/12/26 08:15:12;;;;;;;0.50;0.10;;;12.50;1.00;;;;;;4898740;29;20514;-75
2022/12/26 08:17:40;;;;;;;0.50;0.10;;;12.50;1.00;;;;;;4898228;29;20454;-75
2022/12/26 08:20:10;;;;;;;4.63;0.37;;;12.50;1.00;;;;;;4898256;29;20453;-75
2022/12/26 08:22:38;;;;;;;1.83;0.83;;;12.50;1.00;;;;;;4898366;29;20454;-73
2022/12/26 08:25:07;;;;;;;0.50;0.10;;;12.50;1.00;;;;;;4898573;29;20462;-73
2022/12/26 08:27:34;;;;;;;0.50;0.10;;;12.50;1.00;;;;;;4860688;29;20527;-74
2022/12/26 08:30:03;;;;;;;0.50;0.10;;;12.50;1.00;;;;;;4860764;29;20494;-73
2022/12/26 08:32:31;;;;;;;0.60;0.10;;;12.50;1.00;;;;;;4860713;29;20482;-73
2022/12/26 08:34:59;;;;;;;3.63;3.50;;;12.50;1.00;;;;;;4860516;29;20461;-72
2022/12/26 08:37:28;;;;;;;0.60;0.20;;;12.50;1.00;;;;;;4859667;29;20456;-74
2022/12/26 08:39:56;;;;;;;1.53;0.20;;;12.40;1.00;;;;;;4860904;29;20451;-75
2022/12/26 08:42:24;;;;;;;0.50;0.10;;;12.40;1.00;;;;;;4860739;29;20469;-74
2022/12/26 08:44:52;;;;;;;0.50;0.10;;;12.40;1.00;;;;;;4861345;29;20915;-75
2022/12/26 08:47:20;;;;;;;0.50;0.10;;;12.40;1.00;;;;;;4862485;29;20956;-73
2022/12/26 08:49:48;;;;;;;0.50;0.20;;;12.40;1.00;;;;;;4862479;29;20976;-74
2022/12/26 08:52:16;;;;;;;0.50;0.20;;;12.40;1.00;;;;;;4862777;29;20507;-73
2022/12/26 08:54:45;;;;;;;3.03;2.73;;;12.40;1.00;;;;;;4862411;29;20554;-73
2022/12/26 08:57:14;;;;;;;0.50;0.17;;;12.30;1.00;;;;;;4863017;29;20459;-73
2022/12/26 08:59:42;;;;;;;0.60;0.37;;;12.30;1.00;;;;;;4862472;29;20459;-73
2022/12/26 09:02:11;;;;;;;2.13;1.93;;;12.30;1.00;;;;;;4863038;29;20553;-73
2022/12/26 09:04:39;;;;;;;0.50;0.10;;;12.30;1.00;;;;;;4864864;29;20451;-74
2022/12/26 09:07:08;;;;;;;0.50;0.10;;;;;;;;;;4865000;29;20471;-74
2022/12/26 09:09:36;;;;;;;2.63;0.83;;;12.20;1.00;;;;;;4864744;29;20498;-73
2022/12/26 09:12:06;;;;;;;0.50;0.10;;;12.20;1.00;;;;;;4864924;29;20475;-74
2022/12/26 09:14:34;;;;;;;0.60;0.30;;;12.20;1.00;;;;;;4867897;29;20463;-73
2022/12/26 09:17:01;;;;;;;0.87;0.67;;;12.20;1.00;;;;;;4865151;29;20471;-74
2022/12/26 09:19:31;;;;;;;1.17;0.30;;;12.20;1.00;;;;;;4865056;29;20448;-74
2022/12/26 09:24:41;;;;;;;0.50;0.10;;;12.20;1.00;;;;;;4863811;29;20523;-74
2022/12/26 09:27:10;;;;;;;1.13;0.87;;;12.20;1.00;;;;;;4895841;29;20449;-74
2022/12/26 09:29:38;;;;;;;1.80;1.70;;;12.20;1.00;;;;;;4900293;29;20897;-74
2022/12/26 09:32:06;;;;;;;8.27;1.90;;;12.20;1.00;;;;;;4900261;29;20475;-74
2022/12/26 09:34:33;;;;;;;0.60;0.50;;;12.20;1.00;;;;;;4903115;29;20465;-74
2022/12/26 09:37:01;;;;;;;0.50;0.10;;;12.20;1.00;;;;;;4903523;29;21014;-74
2022/12/26 09:39:29;;;;;;;0.70;0.57;;;12.20;1.00;;;;;;4898930;29;20505;-74
2022/12/26 09:42:08;;;;;;;2.00;1.90;;;12.20;1.00;;;;;;4899116;29;20480;-72
2022/12/26 09:44:46;;;;;;;0.60;0.43;;;12.20;1.00;;;;;;4901079;29;20449;-74
2022/12/26 09:47:29;;;;;;;0.93;0.60;;;12.20;1.00;;;;;;4897581;29;20446;-74
2022/12/26 09:50:02;;;;;;;0.50;0.10;;;12.20;1.00;;;;;;4898122;29;20492;-74
2022/12/26 09:52:38;;;;;;;0.50;0.20;;;12.30;1.00;;;;;;4898504;29;20465;-72
2022/12/26 09:55:19;;;;;;;2.60;1.97;;;12.30;1.00;;;;;;4897856;29;20441;-73
2022/12/26 09:57:50;;;;;;;1.47;1.37;;;12.30;1.00;;;;;;4897373;29;20456;-75
2022/12/26 10:00:24;;;;;;;0.60;0.50;;;12.30;1.00;;;;;;4898066;29;20456;-75
2022/12/26 10:02:54;;;;;;;0.50;0.20;;;12.30;1.00;;;;;;4898251;29;20461;-74
2022/12/26 10:05:26;;;;;;;0.80;0.60;;;12.20;1.00;;;;;;4899476;29;20819;-76
2022/12/26 10:07:59;;;;;;;0.93;0.60;;;12.20;1.00;;;;;;4900708;29;21032;-75
2022/12/26 10:10:35;;;;;;;1.27;0.90;;;12.10;1.00;;;;;;4899853;29;20490;-74
2022/12/26 10:13:11;;;;;;;0.60;0.37;;;12.10;1.00;;;;;;4899288;29;20456;-74
2022/12/26 10:15:45;;;;;;;0.70;0.43;;;12.20;1.00;;;;;;4899343;29;20449;-74
2022/12/26 10:18:25;;;;;;;0.50;0.10;;;12.20;1.00;;;;;;4901032;29;20823;-73
2022/12/26 10:21:13;;;;;;;0.50;0.10;;;12.30;1.00;;;;;;4901397;29;20469;-73
2022/12/26 10:23:45;;;;;;;0.97;0.50;;;12.30;1.00;;;;;;4901184;29;20453;-73
2022/12/26 10:26:17;;;;;;;0.83;0.63;;;12.30;1.00;;;;;;4900690;29;20457;-75
2022/12/26 10:28:49;;;;;;;0.50;0.10;;;12.30;1.00;;;;;;4900464;29;20502;-73
2022/12/26 10:31:24;;;;;;;0.50;0.10;;;12.30;1.00;;;;;;4900912;29;20489;-72
2022/12/26 10:33:56;;;;;;;0.50;0.10;;;12.30;1.00;;;;;;4900848;29;20485;-72
2022/12/26 10:36:32;;;;;;;0.50;0.10;;;12.40;1.00;;;;;;4900971;29;20457;-73
2022/12/26 10:39:02;;;;;;;0.73;0.67;;;12.40;1.00;;;;;;4900803;29;20833;-76
2022/12/26 10:41:37;;;;;;;0.50;0.10;;;12.40;1.00;;;;;;4901056;29;20476;-74
2022/12/26 10:44:05;;;;;;;0.50;0.10;;;12.40;1.00;;;;;;4900883;29;20452;-73
2022/12/26 10:46:54;;;;;;;0.50;0.10;;;12.30;1.00;;;;;;4900502;29;20450;-73
2022/12/26 10:49:25;;;;;;;3.27;0.93;;;12.30;1.00;;;;;;4896634;29;20818;-73
2022/12/26 10:51:56;;;;;;;0.50;0.10;;;12.30;1.00;;;;;;4900770;29;20465;-73
2022/12/26 10:54:24;;;;;;;0.50;0.20;;;12.30;1.00;;;;;;4900754;29;20450;-74
2022/12/26 10:56:53;;;;;;;0.50;0.20;;;12.30;1.00;;;;;;4900227;29;20454;-74
2022/12/26 10:59:37;;;;;;;0.50;0.10;;;12.30;1.00;;;;;;4899785;29;20449;-73
2022/12/26 11:02:16;;;;;;;0.50;0.10;;;12.30;1.00;;;;;;4899528;29;20485;-74
2022/12/26 11:05:02;;;;;;;1.17;0.40;;;12.40;1.00;;;;;;4900245;29;20485;-74
2022/12/26 11:07:54;;;;;;;0.50;0.20;;;12.40;1.00;;;;;;4899982;29;20486;-75
2022/12/26 11:10:26;;;;;;;0.50;0.10;;;12.30;1.00;;;;;;4900032;29;20481;-74
2022/12/26 11:12:56;;;;;;;0.50;0.10;;;12.30;1.00;;;;;;4900242;29;20465;-74
2022/12/26 11:15:28;;;;;;;3.40;3.07;;;12.40;1.00;;;;;;4900315;29;20454;-73
2022/12/26 11:18:09;;;;;;;3.70;1.63;;;12.50;1.00;;;;;;4899809;29;20450;-75
2022/12/26 11:20:38;;;;;;;0.80;0.27;;;12.60;1.00;;;;;;4899668;29;20823;-73
2022/12/26 11:23:24;;;;;;;0.80;0.57;;;12.60;1.00;;;;;;4901016;29;20457;-74
2022/12/26 11:25:54;;;;;;;0.50;0.20;;;12.50;1.00;;;;;;4901515;29;20442;-72
2022/12/26 11:28:29;;;;;;;0.60;0.43;;;12.50;1.00;;;;;;4901254;29;20456;-72
2022/12/26 11:30:58;;;;;;;0.50;0.13;;;12.40;1.00;;;;;;4898733;29;20493;-72
2022/12/26 11:33:30;;;;;;;0.50;0.10;;;12.40;1.00;;;;;;4899007;29;21035;-73
2022/12/26 11:36:05;;;;;;;0.50;0.20;;;12.40;1.00;;;;;;4899196;29;20446;-73
2022/12/26 11:38:43;;;;;;;2.20;1.63;;;12.40;1.00;;;;;;4898584;29;20509;-73
2022/12/26 11:41:31;;;;;;;4.20;2.33;;;12.40;1.00;;;;;;4898959;29;20476;-73
2022/12/26 11:44:05;;;;;;;0.60;0.20;;;12.40;1.00;;;;;;4899289;29;20500;-73
2022/12/26 11:46:38;;;;;;;0.60;0.20;;;12.40;1.00;;;;;;4899190;29;20449;-73
2022/12/26 11:49:16;;;;;;;0.50;0.10;;;12.30;1.00;;;;;;4898743;29;20506;-73
2022/12/26 11:51:47;;;;;;;0.50;0.17;;;12.40;1.00;;;;;;4901382;29;20485;-73
2022/12/26 11:54:26;;;;;;;0.60;0.20;;;12.40;1.00;;;;;;4900066;29;20452;-73
2022/12/26 11:57:17;;;;;;;0.50;0.20;;;12.50;1.00;;;;;;4905570;29;20962;-73
2022/12/26 11:59:46;;;;;;;0.50;0.20;;;12.50;1.00;;;;;;4899493;29;20454;-72
2022/12/26 12:02:25;;;;;;;0.97;0.40;;;12.50;1.00;;;;;;4899239;29;20488;-72
2022/12/26 12:05:00;;;;;;;1.63;0.77;;;12.50;1.00;;;;;;4899100;29;20513;-72
2022/12/26 12:07:46;;;;;;;0.50;0.10;;;12.50;1.00;;;;;;4898174;29;20548;-73
2022/12/26 12:10:49;;;;;;;1.23;0.30;;;12.60;1.00;;;;;;4899107;29;20497;-74
2022/12/26 12:13:28;;;;;;;0.67;0.40;;;12.60;1.00;;;;;;4898499;29;20457;-72
2022/12/26 12:16:06;;;;;;;0.50;0.10;;;12.50;1.00;;;;;;4897973;29;20501;-73
2022/12/26 12:18:46;;;;;;;1.20;1.10;;;12.60;1.00;;;;;;4898208;29;20453;-73
2022/12/26 12:21:28;;;;;;;7.80;1.60;;;12.70;1.00;;;;;;4898203;29;21100;-72
2022/12/26 12:24:20;;;;;;;0.60;0.30;;;12.70;1.00;;;;;;4898580;29;20454;-73
2022/12/26 12:26:58;;;;;;;0.50;0.10;;;12.70;1.00;;;;;;4898052;29;20533;-73
2022/12/26 12:29:47;;;;;;;0.50;0.10;;;12.80;1.00;;;;;;4898098;29;20450;-73
2022/12/26 12:32:22;;;;;;;0.50;0.10;;;12.80;1.00;;;;;;4898213;29;20545;-73
2022/12/26 12:35:13;;;;;;;0.50;0.10;;;12.70;1.00;;;;;;4897994;29;20792;-72
2022/12/26 12:37:52;;;;;;;0.90;0.33;;;12.70;1.00;;;;;;4897674;29;20800;-73
2022/12/26 12:40:30;;;;;;;0.70;0.40;;;12.70;1.00;;;;;;4897081;29;20445;-73
2022/12/26 12:43:05;;;;;;;0.50;0.20;;;12.70;1.00;;;;;;4897544;29;20464;-73
2022/12/26 12:45:35;;;;;;;0.50;0.10;;;12.70;1.00;;;;;;4897845;29;20508;-73
2022/12/26 12:48:27;;;;;;;0.50;0.10;;;12.80;1.00;;;;;;4897490;29;20548;-72
2022/12/26 12:51:05;;;;;;;0.50;0.10;;;12.70;1.00;;;;;;4897205;29;20493;-72
2022/12/26 12:53:52;;;;;;;0.50;0.10;;;12.70;1.00;;;;;;4897516;29;20501;-73
2022/12/26 12:56:27;;;;;;;1.00;0.80;;;12.60;1.00;;;;;;4898214;29;20457;-72
2022/12/26 12:59:03;;;;;;;0.50;0.20;;;12.60;1.00;;;;;;4897765;29;20501;-73
2022/12/26 13:01:35;;;;;;;0.50;0.20;;;12.60;1.00;;;;;;4897589;29;20477;-72
2022/12/26 13:04:10;;;;;;;7.53;2.70;;;12.50;1.00;;;;;;4897600;29;20451;-73
2022/12/26 13:06:41;;;;;;;0.70;0.30;;;12.50;1.00;;;;;;4897967;29;20813;-74
2022/12/26 13:09:16;;;;;;;0.60;0.33;;;12.40;1.00;;;;;;4897734;29;20453;-73
2022/12/26 13:11:48;;;;;;;0.50;0.10;;;12.50;1.00;;;;;;4898079;29;20492;-73
2022/12/26 13:14:20;;;;;;;3.63;1.17;;;12.50;1.00;;;;;;4898489;29;20460;-73
2022/12/26 13:16:55;;;;;;;0.60;0.30;;;12.60;1.00;;;;;;4899550;29;20460;-73
2022/12/26 13:19:27;;;;;;;0.50;0.10;;;13.40;1.00;;;;;;4899487;29;20877;-73
2022/12/26 13:22:00;;;;;;;0.60;0.20;;;12.60;1.00;;;;;;4900261;29;20518;-73
2022/12/26 13:24:33;;;;;;;0.83;0.83;;;12.60;1.00;;;;;;4898736;29;20833;-73
2022/12/26 13:27:06;;;;;;;0.50;0.10;;;12.50;1.00;;;;;;4898128;29;21050;-73
2022/12/26 13:29:38;;;;;;;0.50;0.20;;;12.60;1.00;;;;;;4898340;29;20461;-74
2022/12/26 13:32:19;;;;;;;1.90;1.33;;;12.60;1.00;;;;;;4897598;29;20489;-74
2022/12/26 13:34:49;;;;;;;0.50;0.10;;;12.60;1.00;;;;;;4897077;29;20985;-71
2022/12/26 13:37:55;;;;;;;0.50;0.10;;;12.60;1.00;;;;;;4896885;29;20446;-73
2022/12/26 13:40:28;;;;;;;0.70;0.30;;;12.70;1.00;;;;;;4896879;29;20449;-74
2022/12/26 13:45:52;;;;;;;1.23;1.13;;;12.70;1.00;;;;;;4897341;29;20465;-72
2022/12/26 13:49:06;;;;;;;0.50;0.23;;;12.70;1.00;;;;;;4897203;29;20449;-72
2022/12/26 13:51:47;;;;;;;0.67;0.60;;;12.70;1.00;;;;;;4898651;29;20576;-73
2022/12/26 13:54:16;;;;;;;0.50;0.20;;;12.60;1.00;;;;;;4901841;29;20472;-73
2022/12/26 13:57:32;;;;;;;2.40;0.60;;;12.60;1.00;;;;;;4901182;29;20456;-72
2022/12/26 14:00:12;;;;;;;5.67;3.40;;;;;;;;;;4901215;29;20513;-72
2022/12/26 14:03:23;;;;;;;0.50;0.10;;;12.60;1.00;;;;;;4901577;29;20440;-73
2022/12/26 14:06:07;;;;;;;0.50;0.10;;;12.60;1.00;;;;;;4901170;29;20445;-73
2022/12/26 14:08:44;;;;;;;0.60;0.30;;;12.60;1.00;;;;;;4900612;29;20879;-72
2022/12/26 14:11:35;;;;;;;0.60;0.50;;;12.70;1.00;;;;;;4900630;29;20486;-72
2022/12/26 14:14:13;;;;;;;0.87;0.57;;;12.70;1.00;;;;;;4902193;29;20457;-73
2022/12/26 14:16:48;;;;;;;1.23;0.60;;;12.60;1.00;;;;;;4901099;29;20450;-72
2022/12/26 14:19:31;;;;;;;0.60;0.20;;;12.10;1.00;;;;;;4900346;29;20461;-71
2022/12/26 14:22:05;;;;;;;0.70;0.27;;;11.80;1.00;;;;;;4900779;29;20461;-74
2022/12/26 14:24:46;;;;;;;0.50;0.30;;;11.70;1.00;;;;;;4900682;29;20453;-72
2022/12/26 14:27:26;;;;;;;2.03;1.93;;;11.40;1.00;;;;;;4900430;29;20950;-74
2022/12/26 14:30:15;;;;;;;0.90;0.90;;;11.00;1.00;;;;;;4900963;29;20452;-71
2022/12/26 14:32:52;;;;;;;0.50;0.20;;;11.00;1.00;;;;;;4899519;29;21144;-72
2022/12/26 14:35:30;;;;;;;0.50;0.10;;;11.00;1.00;;;;;;4900383;29;20966;-72
2022/12/26 14:38:09;;;;;;;0.50;0.20;;;11.00;1.00;;;;;;4899744;29;20449;-74
2022/12/26 14:40:38;;;;;;;0.50;0.20;;;11.00;1.00;;;;;;4900322;29;20473;-72
2022/12/26 14:43:25;;;;;;;0.50;0.10;;;11.10;1.00;;;;;;4900500;29;20441;-72
2022/12/26 14:45:56;;;;;;;1.13;1.13;;;11.10;1.00;;;;;;4899964;29;20477;-72
2022/12/26 14:48:57;;;;;;;2.03;0.73;;;11.10;1.00;;;;;;4899942;29;20450;-74
2022/12/26 14:51:40;;;;;;;0.50;0.10;;;11.30;1.00;;;;;;4899288;29;20484;-72
2022/12/26 14:54:36;;;;;;;0.50;0.10;;;11.30;1.00;;;;;;4899796;29;20468;-72
2022/12/26 14:57:42;;;;;;;0.60;0.20;;;11.30;1.00;;;;;;4900096;29;20456;-72
2022/12/26 15:00:25;;;;;;;0.50;0.20;;;11.30;1.00;;;;;;4896927;29;20472;-72
2022/12/26 15:03:29;;;;;;;0.70;0.33;;;11.30;1.00;;;;;;4899031;29;20841;-72
2022/12/26 15:06:15;;;;;;;1.43;0.93;;;11.20;1.00;;;;;;4899480;29;20501;-72
2022/12/26 15:09:01;;;;;;;0.50;0.10;;;11.20;1.00;;;;;;4899354;29;20449;-72
2022/12/26 15:12:04;;;;;;;3.60;1.03;;;11.20;1.00;;;;;;4899662;29;20474;-72
2022/12/26 15:14:58;;;;;;;0.50;0.20;;;11.20;1.00;;;;;;4898571;29;20457;-72
2022/12/26 15:17:33;;;;;;;0.50;0.20;;;12.30;1.00;;;;;;4899292;29;20426;-72
2022/12/26 15:20:28;;;;;;;0.50;0.20;;;11.20;1.00;;;;;;4899589;29;20449;-72
2022/12/26 15:23:38;;;;;;;1.63;0.33;;;11.20;1.00;;;;;;4899570;29;20442;-72
2022/12/26 15:26:21;;;;;;;0.50;0.10;;;11.30;1.00;;;;;;4893867;29;21035;-73
2022/12/26 15:29:10;;;;;;;0.50;0.10;;;11.30;1.00;;;;;;4899181;29;20935;-72
2022/12/26 15:31:46;;;;;;;0.50;0.10;;;11.40;1.00;;;;;;4899330;29;20465;-74
2022/12/26 15:34:32;;;;;;;0.60;0.33;;;11.30;1.00;;;;;;4898808;29;20445;-72
2022/12/26 15:37:08;;;;;;;0.50;0.20;;;11.30;1.00;;;;;;4899434;29;20445;-72
2022/12/26 15:39:46;;;;;;;0.70;0.40;;;11.10;1.00;;;;;;4898865;29;20453;-73
2022/12/26 15:42:30;;;;;;;0.50;0.10;;;11.10;1.00;;;;;;4898863;29;20885;-72
2022/12/26 15:45:18;;;;;;;0.50;0.10;;;11.00;1.00;;;;;;4898958;29;20540;-73
2022/12/26 15:48:01;;;;;;;0.50;0.10;;;11.00;1.00;;;;;;4898978;29;20537;-74
2022/12/26 15:50:34;;;;;;;1.17;0.97;;;11.10;1.00;;;;;;4898873;29;20441;-74
2022/12/26 15:53:23;;;;;;;0.50;0.10;;;11.10;1.00;;;;;;4899210;29;20564;-73
2022/12/26 15:56:13;;;;;;;0.50;0.20;;;11.20;1.00;;;;;;4899605;29;20449;-73
2022/12/26 15:58:59;;;;;;;0.50;0.20;;;11.10;1.00;;;;;;4898918;29;20460;-73
2022/12/26 16:01:38;;;;;;;0.50;0.20;;;11.00;1.00;;;;;;4898579;29;21022;-73
2022/12/26 16:04:12;;;;;;;0.60;0.30;;;11.00;1.00;;;;;;4899363;29;20453;-73
2022/12/26 16:06:50;;;;;;;0.60;0.40;;;10.90;1.00;;;;;;4898814;29;20445;-73
2022/12/26 16:09:38;;;;;;;0.50;0.10;;;10.80;1.00;;;;;;4898497;29;20457;-71
2022/12/26 16:12:24;;;;;;;0.50;0.10;;;10.80;1.00;;;;;;4898656;29;20494;-74
2022/12/26 16:15:01;;;;;;;0.50;0.10;;;10.80;1.00;;;;;;4897896;29;20457;-72
2022/12/26 16:17:30;;;;;;;0.83;0.30;;;10.80;1.00;;;;;;4899927;29;20452;-72
2022/12/26 16:19:58;;;;;;;0.73;0.73;;;10.80;1.00;;;;;;4900187;29;20453;-72
2022/12/26 16:22:45;;;;;;;0.70;0.30;;;10.80;1.00;;;;;;4898905;29;20473;-72
2022/12/26 16:25:18;;;;;;;0.50;0.20;;;10.80;1.00;;;;;;4898937;29;20452;-72
2022/12/26 16:27:47;;;;;;;0.80;0.27;;;10.70;1.00;;;;;;4898271;29;20453;-72
2022/12/26 16:30:20;;;;;;;0.70;0.40;;;10.70;1.00;;;;;;4898561;29;20866;-72
2022/12/26 16:32:48;;;;;;;0.50;0.10;;;10.70;1.00;;;;;;4898597;29;21020;-73
2022/12/26 16:35:19;;;;;;;0.50;0.10;;;10.70;1.00;;;;;;4899627;29;20450;-73
2022/12/26 16:37:48;;;;;;;0.50;0.10;;;10.80;1.00;;;;;;4901441;29;20954;-73
2022/12/26 16:40:23;;;;;;;0.60;0.30;;;10.90;1.00;;;;;;4899317;29;20453;-73
2022/12/26 16:43:00;;;;;;;0.50;0.10;;;10.90;1.00;;;;;;4898282;29;20500;-73
2022/12/26 16:45:31;;;;;;;0.80;0.30;;;10.90;1.00;;;;;;4898566;29;20474;-72
2022/12/26 16:47:59;;;;;;;0.50;0.10;;;10.90;1.00;;;;;;4898229;29;20947;-73
2022/12/26 16:50:28;;;;;;;0.50;0.10;;;10.70;1.00;;;;;;4898648;29;20456;-72
2022/12/26 16:53:10;;;;;;;0.50;0.10;;;10.70;1.00;;;;;;4898183;29;20485;-72
2022/12/26 16:55:45;;;;;;;0.50;0.20;;;10.70;1.00;;;;;;4898338;29;20453;-72
2022/12/26 16:58:20;;;;;;;0.50;0.20;;;10.70;1.00;;;;;;4897891;29;20522;-71
2022/12/26 17:01:03;;;;;;;0.60;0.30;;;10.50;1.00;;;;;;4898215;29;20488;-72
2022/12/26 17:03:38;;;;;;;0.50;0.10;;;10.50;1.00;;;;;;4897563;29;20521;-72
2022/12/26 17:06:12;;;;;;;0.90;0.60;;;10.40;1.00;;;;;;4897923;29;20456;-74
2022/12/26 17:08:43;;;;;;;0.50;0.10;;;10.30;1.00;;;;;;4897476;29;20453;-72
2022/12/26 17:11:12;;;;;;;0.50;0.10;;;10.30;1.00;;;;;;4897962;29;20485;-73
2022/12/26 17:13:46;;;;;;;1.90;0.67;;;10.30;1.00;;;;;;4897756;29;20481;-71
2022/12/26 17:16:14;;;;;;;1.03;0.20;;;10.20;1.00;;;;;;4898200;29;20939;-72
2022/12/26 17:18:47;;;;;;;0.50;0.10;;;10.20;1.00;;;;;;4897897;29;20449;-72
2022/12/26 17:21:22;;;;;;;0.50;0.10;;;10.20;1.00;;;;;;4897126;29;20469;-73
2022/12/26 17:24:14;;;;;;;0.50;0.10;;;10.20;1.00;;;;;;4897324;29;20943;-72
2022/12/26 17:26:44;;;;;;;0.60;0.20;;;10.20;1.00;;;;;;4897199;29;20453;-73
2022/12/26 17:29:51;;;;;;;0.60;0.30;;;10.20;1.00;;;;;;4897135;29;20864;-73
2022/12/26 17:32:33;;;;;;;0.50;0.20;;;10.20;1.00;;;;;;4895373;29;20480;-72
2022/12/26 17:35:10;;;;;;;0.50;0.10;;;10.20;1.00;;;;;;4897303;29;20973;-72
2022/12/26 17:37:38;;;;;;;0.90;0.30;;;10.10;1.00;;;;;;4897025;29;20819;-72
2022/12/26 17:40:19;;;;;;;0.50;0.20;;;10.10;1.00;;;;;;4897402;29;20485;-73
2022/12/26 17:42:51;;;;;;;0.50;0.10;;;9.90;1.00;;;;;;4897563;29;20864;-73
2022/12/26 17:45:21;;;;;;;0.50;0.27;;;9.90;1.00;;;;;;4897682;29;20939;-74
2022/12/26 17:47:50;;;;;;;0.50;0.10;;;9.90;1.00;;;;;;4897249;29;20963;-72
2022/12/26 17:50:18;;;;;;;0.70;0.47;;;10.00;1.00;;;;;;4897273;29;20450;-73
2022/12/26 17:52:46;;;;;;;0.50;0.10;;;9.90;1.00;;;;;;4897113;29;20469;-71
2022/12/26 17:55:18;;;;;;;0.50;0.10;;;9.90;1.00;;;;;;4897376;29;20472;-72
2022/12/26 17:57:46;;;;;;;0.50;0.10;;;9.90;1.00;;;;;;4896859;29;20969;-73
2022/12/26 18:00:18;;;;;;;0.60;0.20;;;9.90;1.00;;;;;;4897315;29;21007;-73
2022/12/26 18:02:46;;;;;;;0.50;0.10;;;9.90;1.00;;;;;;4897514;29;20438;-72
2022/12/26 18:05:14;;;;;;;1.47;0.30;;;9.90;1.00;;;;;;4897410;29;20502;-73
2022/12/26 18:07:43;;;;;;;0.50;0.10;;;9.90;1.00;;;;;;4897040;29;20450;-72